Time;durP1;ratioP1;P1;durP2;ratioP2;P2;SDS_P1;SDS_P2;PMS_P1;PMS_P2;Temp;Humidity;BMP_temperature;BMP_pressure;BME280_temperature;BME280_humidity;BME280_pressure;Samples;Min_cycle;Max_cycle;Signal;HPM_P1;HPM_P2
2023/03/26 00:00:49;;;;;;;3.35;0.60;;;;;;;;;;4946732;29;20671;-81
2023/03/26 00:03:16;;;;;;;1.40;0.50;;;;;;;;;;4947721;28;20042;-81
2023/03/26 00:05:43;;;;;;;0.90;0.60;;;;;;;;;;4958516;28;20164;-81
2023/03/26 00:08:09;;;;;;;3.10;0.40;;;;;;;;;;4946869;28;20031;-81
2023/03/26 00:10:39;;;;;;;0.88;0.50;;;;;;;;;;4946143;29;20043;-81
2023/03/26 00:13:05;;;;;;;1.05;0.43;;;;;;;;;;4944522;28;20100;-81
2023/03/26 00:15:32;;;;;;;3.30;0.63;;;;;;;;;;4940038;29;20447;-81
2023/03/26 00:17:59;;;;;;;2.92;0.68;;;;;;;;;;4947072;28;20077;-80
2023/03/26 00:20:26;;;;;;;2.50;0.50;;;;;;;;;;4946222;29;20040;-81
2023/03/26 00:22:53;;;;;;;0.88;0.40;;;;;;;;;;4945424;28;20036;-81
2023/03/26 00:25:20;;;;;;;1.55;0.40;;;;;;;;;;4947083;28;20231;-81
2023/03/26 00:27:47;;;;;;;3.15;0.65;;;;;;;;;;4945119;29;20412;-81
2023/03/26 00:30:12;;;;;;;2.80;0.70;;;;;;;;;;4945957;28;20027;-81
2023/03/26 00:32:38;;;;;;;2.05;0.50;;;;;;;;;;4946281;29;20031;-81
2023/03/26 00:35:04;;;;;;;1.55;0.63;;;;;;;;;;4944424;28;20577;-81
2023/03/26 00:37:32;;;;;;;1.33;0.60;;;;;;;;;;4962349;28;20506;-81
2023/03/26 00:40:01;;;;;;;1.15;0.50;;;;;;;;;;4943665;29;20130;-81
2023/03/26 00:42:28;;;;;;;2.13;0.60;;;;;;;;;;4961329;28;20035;-81
2023/03/26 00:44:56;;;;;;;1.60;0.60;;;;;;;;;;4944664;29;20035;-81
2023/03/26 00:47:25;;;;;;;2.55;0.80;;;;;;;;;;4958640;28;20031;-81
2023/03/26 00:49:51;;;;;;;2.97;0.70;;;;;;;;;;4941856;29;20047;-81
2023/03/26 00:52:22;;;;;;;2.58;0.57;;;;;;;;;;4944615;29;20115;-81
2023/03/26 00:54:50;;;;;;;3.03;0.75;;;;;;;;;;4946476;29;20039;-81
2023/03/26 00:57:17;;;;;;;2.08;0.70;;;;;;;;;;4940125;29;20040;-81
2023/03/26 00:59:42;;;;;;;2.78;0.70;;;;;;;;;;4946030;29;20066;-81
2023/03/26 01:02:15;;;;;;;2.33;0.60;;;;;;;;;;4960045;28;20027;-81
2023/03/26 01:04:44;;;;;;;2.83;0.77;;;;;;;;;;4942429;28;20039;-81
2023/03/26 01:07:21;;;;;;;2.20;0.60;;;;;;;;;;4940533;29;20055;-81
2023/03/26 01:09:50;;;;;;;4.07;0.75;;;;;;;;;;4960569;28;20039;-81
2023/03/26 01:12:21;;;;;;;2.85;0.65;;;;;;;;;;4950874;29;20042;-82
2023/03/26 01:14:49;;;;;;;2.55;0.65;;;;;;;;;;4947807;29;20562;-81
2023/03/26 01:17:14;;;;;;;2.60;0.70;;;;;;;;;;4948552;28;20051;-81
2023/03/26 01:20:13;;;;;;;1.95;0.70;;;;;;;;;;4949856;29;20104;-81
2023/03/26 01:22:47;;;;;;;1.95;0.70;;;;;;;;;;4951021;28;20046;-81
2023/03/26 01:25:13;;;;;;;4.05;0.70;;;;;;;;;;4947671;28;20046;-81
2023/03/26 01:27:49;;;;;;;3.60;0.80;;;;;;;;;;4962509;28;20046;-81
2023/03/26 01:30:40;;;;;;;4.32;0.77;;;;;;;;;;4944796;29;20511;-81
2023/03/26 01:33:32;;;;;;;4.63;0.60;;;;;;;;;;4960466;28;20126;-81
2023/03/26 01:36:10;;;;;;;1.23;0.60;;;;;;;;;;4945885;28;20135;-81
2023/03/26 01:39:02;;;;;;;2.25;0.60;;;;;;;;;;4943730;29;20037;-81
2023/03/26 01:41:39;;;;;;;2.10;0.70;;;;;;;;;;4944551;29;20032;-81
2023/03/26 01:44:27;;;;;;;2.35;0.73;;;;;;;;;;4945743;29;20043;-80
2023/03/26 01:46:54;;;;;;;2.70;1.00;;;;;;;;;;4946660;28;20484;-81
2023/03/26 01:49:20;;;;;;;2.88;0.80;;;;;;;;;;4961684;28;20059;-81
2023/03/26 01:51:46;;;;;;;3.53;0.80;;;;;;;;;;4949946;28;20475;-81
2023/03/26 01:54:24;;;;;;;1.08;0.55;;;;;;;;;;4947095;29;20040;-81
2023/03/26 01:56:59;;;;;;;2.65;0.90;;;;;;;;;;4946994;28;20031;-81
2023/03/26 01:59:40;;;;;;;3.67;0.80;;;;;;;;;;4947271;29;20134;-81
2023/03/26 02:02:10;;;;;;;2.70;0.70;;;;;;;;;;4942226;29;20031;-81
2023/03/26 02:04:45;;;;;;;3.22;0.82;;;;;;;;;;4945259;28;20296;-82
2023/03/26 02:07:40;;;;;;;3.65;0.93;;;;;;;;;;4949778;28;20031;-81
2023/03/26 02:10:12;;;;;;;4.25;0.95;;;;;;;;;;4959006;28;20486;-81
2023/03/26 02:12:40;;;;;;;2.95;0.70;;;;;;;;;;4946801;29;20507;-81
2023/03/26 02:15:06;;;;;;;2.08;0.70;;;;;;;;;;4949083;28;20102;-81
2023/03/26 02:17:32;;;;;;;2.50;0.70;;;;;;;;;;4942519;29;20040;-81
2023/03/26 02:19:58;;;;;;;5.80;0.52;;;;;;;;;;4949119;28;20039;-81
2023/03/26 02:22:28;;;;;;;3.13;0.80;;;;;;;;;;4946317;28;20036;-81
2023/03/26 02:24:55;;;;;;;3.60;0.70;;;;;;;;;;4945053;29;20036;-81
2023/03/26 02:27:21;;;;;;;4.68;1.02;;;;;;;;;;4963788;28;20031;-80
2023/03/26 02:29:49;;;;;;;4.55;0.93;;;;;;;;;;4945071;29;20087;-81
2023/03/26 02:32:15;;;;;;;4.68;1.08;;;;;;;;;;4947026;29;20420;-81
2023/03/26 02:34:41;;;;;;;4.28;0.85;;;;;;;;;;4961977;28;20039;-81
2023/03/26 02:37:08;;;;;;;2.88;0.93;;;;;;;;;;4962725;28;20083;-81
2023/03/26 02:39:35;;;;;;;7.35;1.00;;;;;;;;;;4963845;28;20126;-82
2023/03/26 02:42:09;;;;;;;4.38;0.95;;;;;;;;;;4947319;29;20111;-81
2023/03/26 02:44:42;;;;;;;4.93;1.05;;;;;;;;;;4944357;29;20480;-81
2023/03/26 02:47:32;;;;;;;5.00;1.05;;;;;;;;;;4951133;29;20051;-81
2023/03/26 02:50:18;;;;;;;4.82;0.90;;;;;;;;;;4948798;29;20047;-81
2023/03/26 02:53:05;;;;;;;4.25;0.85;;;;;;;;;;4961433;28;20035;-81
2023/03/26 02:55:34;;;;;;;3.85;1.00;;;;;;;;;;4943101;28;20441;-82
2023/03/26 02:58:01;;;;;;;3.55;0.90;;;;;;;;;;4946670;29;20067;-81
2023/03/26 03:00:34;;;;;;;3.80;1.10;;;;;;;;;;4947599;29;20029;-81
2023/03/26 03:03:18;;;;;;;4.68;1.00;;;;;;;;;;4945176;29;20508;-81
2023/03/26 03:05:58;;;;;;;2.63;1.00;;;;;;;;;;4940182;28;20039;-81
2023/03/26 03:08:34;;;;;;;3.88;1.10;;;;;;;;;;4944535;29;20035;-81
2023/03/26 03:11:20;;;;;;;2.30;0.73;;;;;;;;;;4957129;29;20055;-81
2023/03/26 03:13:49;;;;;;;5.47;1.00;;;;;;;;;;4957628;29;20047;-81
2023/03/26 03:16:21;;;;;;;5.77;1.00;;;;;;;;;;4954645;28;20040;-81
2023/03/26 03:18:56;;;;;;;3.72;0.93;;;;;;;;;;4973802;28;20035;-81
2023/03/26 03:21:28;;;;;;;3.42;0.90;;;;;;;;;;4969056;28;20144;-81
2023/03/26 03:23:55;;;;;;;4.47;1.00;;;;;;;;;;4954493;28;20039;-81
2023/03/26 03:26:26;;;;;;;4.10;1.00;;;;;;;;;;4946595;29;20042;-82
2023/03/26 03:28:55;;;;;;;4.30;0.77;;;;;;;;;;4959950;28;20122;-82
2023/03/26 03:31:21;;;;;;;6.10;1.00;;;;;;;;;;4962178;28;20024;-81
2023/03/26 03:33:47;;;;;;;6.45;1.17;;;;;;;;;;4945081;28;20114;-81
2023/03/26 03:36:20;;;;;;;3.78;0.80;;;;;;;;;;4959716;28;20118;-81
2023/03/26 03:38:48;;;;;;;3.30;1.00;;;;;;;;;;4956113;28;20063;-81
2023/03/26 03:41:17;;;;;;;3.63;0.88;;;;;;;;;;4945357;28;20393;-81
2023/03/26 03:43:45;;;;;;;6.30;1.35;;;;;;;;;;4945697;29;20452;-81
2023/03/26 03:46:14;;;;;;;2.92;0.90;;;;;;;;;;4958907;28;20063;-81
2023/03/26 03:48:48;;;;;;;3.55;1.20;;;;;;;;;;4945595;28;20423;-81
2023/03/26 03:51:17;;;;;;;4.10;1.10;;;;;;;;;;4961500;28;20031;-81
2023/03/26 03:53:52;;;;;;;4.63;1.17;;;;;;;;;;4940342;29;20047;-81
2023/03/26 03:56:30;;;;;;;4.03;0.85;;;;;;;;;;4959673;28;20040;-82
2023/03/26 03:59:22;;;;;;;4.90;1.00;;;;;;;;;;4945978;29;20042;-81
2023/03/26 04:01:49;;;;;;;2.25;0.80;;;;;;;;;;4959391;28;20027;-81
2023/03/26 04:04:36;;;;;;;3.75;0.98;;;;;;;;;;4938409;29;20048;-81
2023/03/26 04:07:05;;;;;;;2.33;0.80;;;;;;;;;;4945303;29;20035;-81
2023/03/26 04:09:50;;;;;;;4.97;0.90;;;;;;;;;;4940379;28;20047;-81
2023/03/26 04:12:18;;;;;;;3.33;0.82;;;;;;;;;;4944994;29;20106;-81
2023/03/26 04:14:50;;;;;;;3.40;1.00;;;;;;;;;;4943610;28;20090;-81
2023/03/26 04:17:20;;;;;;;7.00;1.00;;;;;;;;;;4955757;28;20122;-81
2023/03/26 04:19:47;;;;;;;4.72;1.00;;;;;;;;;;4961117;28;20043;-81
2023/03/26 04:22:17;;;;;;;3.78;0.95;;;;;;;;;;4960935;28;20031;-81
2023/03/26 04:25:09;;;;;;;3.83;0.90;;;;;;;;;;4945599;28;20047;-81
2023/03/26 04:27:54;;;;;;;;;;;;;;;;;;4944837;29;20518;-78
2023/03/26 04:30:41;;;;;;;6.32;1.02;;;;;;;;;;4960230;28;19919;-81
2023/03/26 04:33:24;;;;;;;4.50;1.00;;;;;;;;;;4943544;29;20039;-81
2023/03/26 04:35:51;;;;;;;5.35;0.90;;;;;;;;;;4946340;28;20039;-81
2023/03/26 04:38:20;;;;;;;2.70;0.60;;;;;;;;;;4964333;28;20034;-81
2023/03/26 04:40:49;;;;;;;2.90;0.88;;;;;;;;;;4961499;28;20396;-81
2023/03/26 04:43:41;;;;;;;4.65;0.75;;;;;;;;;;4944517;29;20050;-81
2023/03/26 04:46:20;;;;;;;3.13;0.90;;;;;;;;;;4964066;28;20028;-81
2023/03/26 04:48:52;;;;;;;2.85;1.00;;;;;;;;;;4951928;28;20061;-82
2023/03/26 04:51:22;;;;;;;3.67;0.98;;;;;;;;;;4966421;28;20525;-82
2023/03/26 04:53:59;;;;;;;3.15;0.90;;;;;;;;;;4966890;28;20445;-82
2023/03/26 04:56:50;;;;;;;3.10;0.75;;;;;;;;;;4945285;29;20032;-81
2023/03/26 04:59:33;;;;;;;4.25;1.00;;;;;;;;;;4949007;29;20046;-81
2023/03/26 05:02:00;;;;;;;4.28;1.10;;;;;;;;;;4963171;28;20031;-82
2023/03/26 05:04:32;;;;;;;4.78;1.20;;;;;;;;;;4961621;28;20039;-81
2023/03/26 05:06:58;;;;;;;3.40;1.13;;;;;;;;;;4965119;28;20503;-82
2023/03/26 05:09:40;;;;;;;5.03;1.13;;;;;;;;;;4964970;28;20090;-81
2023/03/26 05:12:29;;;;;;;4.65;0.85;;;;;;;;;;4948605;28;20415;-82
2023/03/26 05:15:00;;;;;;;4.50;1.13;;;;;;;;;;4942940;29;20052;-82
2023/03/26 05:17:41;;;;;;;4.80;1.05;;;;;;;;;;5000512;23;20133;-84
2023/03/26 05:20:20;;;;;;;3.72;1.23;;;;;;;;;;5019476;28;20036;-85
2023/03/26 05:22:48;;;;;;;6.88;1.25;;;;;;;;;;5023505;28;20098;-85
2023/03/26 05:25:28;;;;;;;4.68;1.02;;;;;;;;;;5036666;28;20525;-85
2023/03/26 05:27:54;;;;;;;3.92;1.20;;;;;;;;;;5025890;28;20037;-86
2023/03/26 05:30:24;;;;;;;2.92;0.90;;;;;;;;;;5021865;28;20042;-85
2023/03/26 05:32:55;;;;;;;2.05;0.88;;;;;;;;;;5016275;28;20485;-85
2023/03/26 05:35:25;;;;;;;2.80;0.98;;;;;;;;;;5007452;28;20549;-86
2023/03/26 05:37:51;;;;;;;4.32;1.00;;;;;;;;;;5010029;28;20048;-87
2023/03/26 05:40:20;;;;;;;2.03;0.77;;;;;;;;;;5002006;28;20023;-87
2023/03/26 05:42:55;;;;;;;4.00;1.40;;;;;;;;;;5006238;28;20449;-86
2023/03/26 05:45:33;;;;;;;4.38;0.98;;;;;;;;;;4997810;28;20133;-84
2023/03/26 05:48:06;;;;;;;3.38;1.13;;;;;;;;;;5019755;28;20557;-86
2023/03/26 05:50:31;;;;;;;4.78;1.10;;;;;;;;;;5020694;28;20030;-85
2023/03/26 05:52:59;;;;;;;2.85;1.10;;;;;;;;;;5018189;28;20442;-86
2023/03/26 05:55:56;;;;;;;3.70;1.25;;;;;;;;;;5007145;28;20478;-83
2023/03/26 05:58:40;;;;;;;2.45;0.77;;;;;;;;;;5008427;28;20113;-85
2023/03/26 06:01:24;;;;;;;1.95;0.80;;;;;;;;;;5008256;28;20048;-83
2023/03/26 06:04:27;;;;;;;3.15;1.23;;;;;;;;;;5018591;28;20038;-83
2023/03/26 06:07:11;;;;;;;5.78;1.30;;;;;;;;;;5019735;28;20044;-84
2023/03/26 06:09:39;;;;;;;2.92;1.40;;;;;;;;;;5011479;28;20478;-86
2023/03/26 06:12:06;;;;;;;6.45;1.80;;;;;;;;;;5025687;28;20038;-83
2023/03/26 06:14:32;;;;;;;4.20;1.70;;;;;;;;;;5001823;28;20042;-83
2023/03/26 06:17:28;;;;;;;2.60;1.05;;;;;;;;;;5005860;28;20469;-84
2023/03/26 06:20:06;;;;;;;4.65;1.00;;;;;;;;;;5003351;28;20088;-82
2023/03/26 06:22:38;;;;;;;3.00;1.10;;;;;;;;;;5019095;28;20038;-84
2023/03/26 06:25:15;;;;;;;6.03;1.10;;;;;;;;;;5006445;28;20070;-84
2023/03/26 06:27:54;;;;;;;4.00;1.08;;;;;;;;;;5018855;28;20406;-85
2023/03/26 06:30:46;;;;;;;3.38;1.27;;;;;;;;;;5014247;28;20038;-85
2023/03/26 06:33:20;;;;;;;3.80;0.73;;;;;;;;;;5003047;28;20042;-85
2023/03/26 06:35:49;;;;;;;3.13;0.80;;;;;;;;;;5004239;28;20029;-83
2023/03/26 06:38:15;;;;;;;3.10;0.90;;;;;;;;;;5019400;28;20035;-82
2023/03/26 06:40:41;;;;;;;7.65;1.00;;;;;;;;;;5003836;28;20030;-83
2023/03/26 06:43:27;;;;;;;3.53;1.20;;;;;;;;;;5003269;28;20038;-82
2023/03/26 06:46:08;;;;;;;5.40;1.20;;;;;;;;;;5017086;28;20038;-81
2023/03/26 06:48:34;;;;;;;3.25;1.30;;;;;;;;;;5006764;28;20042;-79
2023/03/26 06:51:16;;;;;;;4.43;1.13;;;;;;;;;;5015490;28;20050;-82
2023/03/26 06:54:11;;;;;;;3.08;0.80;;;;;;;;;;5002218;28;20042;-82
2023/03/26 06:56:43;;;;;;;1.88;0.90;;;;;;;;;;5020235;28;20217;-82
2023/03/26 06:59:35;;;;;;;3.30;1.02;;;;;;;;;;5021514;28;20034;-81
2023/03/26 07:02:20;;;;;;;6.43;1.40;;;;;;;;;;5004443;28;20043;-83
2023/03/26 07:05:04;;;;;;;3.97;1.15;;;;;;;;;;5002673;28;20133;-82
2023/03/26 07:07:48;;;;;;;3.35;1.20;;;;;;;;;;5001328;28;20053;-83
2023/03/26 07:10:32;;;;;;;3.35;1.20;;;;;;;;;;5022083;28;20057;-82
2023/03/26 07:13:00;;;;;;;4.05;1.02;;;;;;;;;;5012542;28;20050;-81
2023/03/26 07:15:47;;;;;;;2.20;1.00;;;;;;;;;;5013756;28;20054;-81
2023/03/26 07:18:21;;;;;;;3.08;0.90;;;;;;;;;;5017895;28;20046;-82
2023/03/26 07:20:49;;;;;;;2.22;0.90;;;;;;;;;;5005397;28;20026;-79
2023/03/26 07:23:19;;;;;;;3.03;1.00;;;;;;;;;;5022011;28;20019;-84
2023/03/26 07:26:35;;;;;;;2.08;0.65;;;;;;;;;;5007509;28;20030;-84
2023/03/26 07:29:34;;;;;;;2.63;0.95;;;;;;;;;;5003165;28;20062;-84
2023/03/26 07:32:26;;;;;;;2.45;1.20;;;;;;;;;;5016276;28;20046;-82
2023/03/26 07:35:37;;;;;;;2.88;1.20;;;;;;;;;;5004411;28;20030;-81
2023/03/26 07:39:02;;;;;;;3.35;1.10;;;;;;;;;;5017043;28;20038;-81
2023/03/26 07:42:07;;;;;;;2.08;0.80;;;;;;;;;;4997160;28;20042;-83
2023/03/26 07:45:10;;;;;;;1.60;0.70;;;;;;;;;;5019297;28;20093;-84
2023/03/26 07:47:43;;;;;;;1.70;0.63;;;;;;;;;;5002125;28;20046;-83
2023/03/26 07:50:23;;;;;;;2.70;0.85;;;;;;;;;;5002515;28;20035;-82
2023/03/26 07:53:02;;;;;;;1.40;0.73;;;;;;;;;;5022894;28;20045;-85
2023/03/26 07:56:18;;;;;;;1.15;0.60;;;;;;;;;;5007558;28;20511;-85
2023/03/26 07:59:24;;;;;;;1.48;0.88;;;;;;;;;;5004615;28;20077;-84
2023/03/26 08:02:17;;;;;;;5.05;1.10;;;;;;;;;;5000751;28;20026;-84
2023/03/26 08:05:18;;;;;;;2.67;0.90;;;;;;;;;;5019605;28;20065;-84
2023/03/26 08:08:28;;;;;;;3.80;1.30;;;;;;;;;;5010637;28;20041;-85
2023/03/26 08:12:03;;;;;;;4.78;1.90;;;;;;;;;;5008897;28;20129;-84
2023/03/26 08:14:32;;;;;;;3.45;1.10;;;;;;;;;;5022235;28;20054;-81
2023/03/26 08:17:06;;;;;;;4.43;1.25;;;;;;;;;;5004220;28;20390;-81
2023/03/26 08:20:29;;;;;;;6.93;2.40;;;;;;;;;;5001844;28;20038;-83
2023/03/26 08:23:31;;;;;;;5.97;1.40;;;;;;;;;;4971530;28;20047;-85
2023/03/26 08:26:02;;;;;;;5.25;1.25;;;;;;;;;;5006977;28;20033;-82
2023/03/26 08:28:55;;;;;;;4.45;1.10;;;;;;;;;;5016866;28;20080;-83
2023/03/26 08:31:31;;;;;;;4.82;1.23;;;;;;;;;;5017899;28;20571;-82
2023/03/26 08:33:57;;;;;;;3.60;1.30;;;;;;;;;;5004185;28;20038;-79
2023/03/26 08:36:23;;;;;;;3.70;1.23;;;;;;;;;;5022486;28;20038;-83
2023/03/26 08:38:51;;;;;;;13.75;4.45;;;;;;;;;;5004639;28;20406;-83
2023/03/26 08:41:39;;;;;;;10.07;3.13;;;;;;;;;;5006377;28;20065;-84
2023/03/26 08:44:46;;;;;;;6.18;1.55;;;;;;;;;;5002829;28;20038;-83
2023/03/26 08:47:49;;;;;;;5.28;1.98;;;;;;;;;;5023089;28;20034;-84
2023/03/26 08:50:37;;;;;;;3.90;1.15;;;;;;;;;;5004090;28;20036;-83
2023/03/26 08:53:44;;;;;;;3.53;1.00;;;;;;;;;;5000081;28;20514;-83
2023/03/26 08:56:36;;;;;;;5.32;1.80;;;;;;;;;;5022145;28;20172;-84
2023/03/26 08:59:33;;;;;;;5.15;1.90;;;;;;;;;;5017898;28;20043;-84
2023/03/26 09:02:02;;;;;;;8.38;2.28;;;;;;;;;;5019487;28;20031;-83
2023/03/26 09:04:37;;;;;;;4.55;1.70;;;;;;;;;;5018934;28;20056;-84
2023/03/26 09:07:24;;;;;;;6.35;3.15;;;;;;;;;;5004044;28;20063;-83
2023/03/26 09:09:56;;;;;;;4.10;1.40;;;;;;;;;;5002228;28;20510;-85
2023/03/26 09:12:41;;;;;;;6.30;2.10;;;;;;;;;;5005580;28;20126;-84
2023/03/26 09:15:18;;;;;;;2.55;1.20;;;;;;;;;;5009557;28;20091;-83
2023/03/26 09:18:05;;;;;;;3.08;1.80;;;;;;;;;;5017419;28;20046;-82
2023/03/26 09:20:37;;;;;;;3.83;1.25;;;;;;;;;;5002444;28;20097;-82
2023/03/26 09:23:48;;;;;;;2.22;0.98;;;;;;;;;;5020439;28;20498;-82
2023/03/26 09:26:58;;;;;;;3.90;1.42;;;;;;;;;;5015433;28;20042;-81
2023/03/26 09:29:55;;;;;;;2.25;0.80;;;;;;;;;;5004915;28;20100;-82
2023/03/26 09:32:24;;;;;;;2.30;1.17;;;;;;;;;;5017055;28;20038;-83
2023/03/26 09:34:52;;;;;;;1.95;1.00;;;;;;;;;;5014807;28;20033;-82
2023/03/26 09:37:40;;;;;;;3.90;1.25;;;;;;;;;;5010246;28;20429;-85
2023/03/26 09:40:46;;;;;;;2.03;0.93;;;;;;;;;;5025348;28;20050;-84
2023/03/26 09:43:41;;;;;;;2.47;0.90;;;;;;;;;;5006847;28;20038;-84
2023/03/26 09:46:06;;;;;;;2.30;0.80;;;;;;;;;;4991369;28;20196;-81
2023/03/26 09:48:35;;;;;;;2.03;0.77;;;;;;;;;;5008420;28;20522;-83
2023/03/26 09:51:37;;;;;;;2.58;0.85;;;;;;;;;;5025879;28;20060;-82
2023/03/26 09:54:18;;;;;;;1.42;0.80;;;;;;;;;;5004515;28;20057;-82
2023/03/26 09:57:02;;;;;;;4.53;0.90;;;;;;;;;;5019295;28;20584;-83
2023/03/26 09:59:39;;;;;;;4.63;1.48;;;;;;;;;;5007899;28;20133;-82
2023/03/26 10:02:47;;;;;;;4.78;2.83;;;;;;;;;;5024191;28;20034;-82
2023/03/26 10:05:23;;;;;;;5.07;1.20;;;;;;;;;;5003421;28;20061;-85
2023/03/26 10:07:59;;;;;;;2.47;0.90;;;;;;;;;;5022889;28;20108;-85
2023/03/26 10:10:39;;;;;;;2.13;1.00;;;;;;;;;;5021216;28;20050;-85
2023/03/26 10:13:31;;;;;;;2.42;1.23;;;;;;;;;;5008410;28;20050;-84
2023/03/26 10:16:24;;;;;;;1.88;1.00;;;;;;;;;;4987789;28;20045;-81
2023/03/26 10:19:38;;;;;;;3.30;0.82;;;;;;;;;;5019186;28;20084;-82
2023/03/26 10:22:49;;;;;;;2.72;0.80;;;;;;;;;;5017297;28;20133;-83
2023/03/26 10:25:42;;;;;;;6.47;0.90;;;;;;;;;;4985976;28;20129;-82
2023/03/26 10:28:25;;;;;;;2.53;0.90;;;;;;;;;;5007636;28;20502;-82
2023/03/26 10:31:14;;;;;;;2.85;0.95;;;;;;;;;;5023106;28;20038;-82
2023/03/26 10:33:57;;;;;;;2.70;1.00;;;;;;;;;;5009662;28;20133;-83
2023/03/26 10:36:28;;;;;;;;;;;;;;;;;;5008033;28;20569;-82
2023/03/26 10:39:10;;;;;;;1.77;0.95;;;;;;;;;;5002939;28;20333;-82
2023/03/26 10:41:54;;;;;;;1.90;0.93;;;;;;;;;;5004202;28;20038;-83
2023/03/26 10:44:48;;;;;;;3.28;0.70;;;;;;;;;;5002005;28;20103;-83
2023/03/26 10:47:32;;;;;;;1.45;0.80;;;;;;;;;;5010806;28;20069;-83
2023/03/26 10:50:03;;;;;;;1.60;0.77;;;;;;;;;;5020383;28;20573;-82
2023/03/26 10:52:53;;;;;;;2.30;0.98;;;;;;;;;;5005130;28;20042;-84
2023/03/26 10:55:25;;;;;;;2.92;1.08;;;;;;;;;;5005341;28;20045;-83
2023/03/26 10:58:27;;;;;;;2.42;0.82;;;;;;;;;;5008095;28;20066;-85
2023/03/26 11:00:56;;;;;;;3.50;1.20;;;;;;;;;;4995786;28;20487;-82
2023/03/26 11:03:45;;;;;;;5.80;1.02;;;;;;;;;;5000727;28;20030;-83
2023/03/26 11:06:17;;;;;;;5.10;0.90;;;;;;;;;;5015300;28;20030;-84
2023/03/26 11:08:49;;;;;;;2.75;1.02;;;;;;;;;;5021756;28;20557;-83
2023/03/26 11:11:31;;;;;;;7.25;2.88;;;;;;;;;;5024595;28;20065;-85
2023/03/26 11:14:27;;;;;;;17.35;6.85;;;;;;;;;;5008453;28;20041;-83
2023/03/26 11:17:20;;;;;;;8.27;3.10;;;;;;;;;;5010615;28;20038;-81
2023/03/26 11:20:04;;;;;;;8.10;2.45;;;;;;;;;;5014065;28;20038;-84
2023/03/26 11:22:41;;;;;;;3.20;1.00;;;;;;;;;;5001800;28;20046;-82
2023/03/26 11:25:58;;;;;;;3.70;1.05;;;;;;;;;;5033449;23;20108;-82
2023/03/26 11:29:18;;;;;;;4.53;1.02;;;;;;;;;;5007670;28;20050;-83
2023/03/26 11:32:16;;;;;;;2.92;1.10;;;;;;;;;;5006543;28;20048;-83
2023/03/26 11:34:46;;;;;;;1.92;0.90;;;;;;;;;;5019547;28;20065;-83
2023/03/26 11:37:38;;;;;;;2.80;1.10;;;;;;;;;;5007784;28;20034;-84
2023/03/26 11:40:13;;;;;;;1.35;0.85;;;;;;;;;;5004663;28;20096;-84
2023/03/26 11:42:39;;;;;;;2.80;1.63;;;;;;;;;;4993525;28;20476;-83
2023/03/26 11:45:13;;;;;;;2.78;1.00;;;;;;;;;;5006779;28;20038;-82
2023/03/26 11:47:52;;;;;;;2.70;1.10;;;;;;;;;;5007425;28;20033;-82
2023/03/26 11:50:24;;;;;;;3.38;1.27;;;;;;;;;;5003880;28;20034;-84
2023/03/26 11:52:51;;;;;;;2.15;1.30;;;;;;;;;;5023272;28;20489;-84
2023/03/26 11:55:16;;;;;;;2.10;1.00;;;;;;;;;;5005162;28;20038;-83
2023/03/26 11:57:50;;;;;;;1.50;0.85;;;;;;;;;;5007443;28;20046;-81
2023/03/26 12:00:18;;;;;;;;;;;;;;;;;;5005039;28;20038;-80
2023/03/26 12:02:45;;;;;;;1.58;0.80;;;;;;;;;;5007223;28;20098;-80
2023/03/26 12:05:39;;;;;;;2.58;0.80;;;;;;;;;;4991991;28;20030;-83
2023/03/26 12:08:18;;;;;;;2.00;1.30;;;;;;;;;;5020505;28;20049;-83
2023/03/26 12:10:57;;;;;;;1.25;0.85;;;;;;;;;;4997804;28;20037;-83
2023/03/26 12:13:49;;;;;;;1.48;0.73;;;;;;;;;;5001340;28;20078;-83
2023/03/26 12:16:17;;;;;;;1.50;0.50;;;;;;;;;;5003770;28;20073;-82
2023/03/26 12:18:44;;;;;;;1.60;0.60;;;;;;;;;;5007811;28;20046;-83
2023/03/26 12:21:18;;;;;;;0.88;0.57;;;;;;;;;;5007660;28;20042;-83
2023/03/26 12:24:04;;;;;;;1.08;0.55;;;;;;;;;;5005210;28;20117;-84
2023/03/26 12:26:47;;;;;;;1.33;0.80;;;;;;;;;;4996713;28;20039;-83
2023/03/26 12:29:17;;;;;;;0.93;0.75;;;;;;;;;;5008328;28;20037;-84
2023/03/26 12:32:01;;;;;;;3.20;0.60;;;;;;;;;;5021996;28;20058;-83
2023/03/26 12:34:33;;;;;;;;;;;;;;;;;;5003593;28;20064;-82
2023/03/26 12:37:00;;;;;;;1.58;0.50;;;;;;;;;;5006244;28;19914;-83
2023/03/26 12:39:30;;;;;;;1.17;0.50;;;;;;;;;;5006151;28;20049;-82
2023/03/26 12:41:58;;;;;;;1.63;0.55;;;;;;;;;;4999675;28;20039;-84
2023/03/26 12:44:42;;;;;;;1.45;0.70;;;;;;;;;;5005921;28;20061;-82
2023/03/26 12:47:16;;;;;;;1.63;0.60;;;;;;;;;;5003567;28;20038;-81
2023/03/26 12:49:43;;;;;;;2.65;0.60;;;;;;;;;;5006492;28;20030;-83
2023/03/26 12:52:17;;;;;;;2.20;0.60;;;;;;;;;;5006072;28;20034;-83
2023/03/26 12:54:47;;;;;;;2.33;0.80;;;;;;;;;;5003450;28;20050;-81
2023/03/26 12:57:24;;;;;;;1.05;0.70;;;;;;;;;;5005990;28;20068;-84
2023/03/26 13:00:15;;;;;;;1.65;0.75;;;;;;;;;;5003268;28;20093;-83
2023/03/26 13:02:52;;;;;;;2.63;0.90;;;;;;;;;;4994159;28;20141;-82
2023/03/26 13:05:29;;;;;;;2.30;1.00;;;;;;;;;;5003954;28;20042;-83
2023/03/26 13:08:29;;;;;;;3.42;1.00;;;;;;;;;;5008414;28;20041;-83
2023/03/26 13:11:04;;;;;;;3.42;1.10;;;;;;;;;;5008558;28;20034;-84
2023/03/26 13:14:03;;;;;;;3.42;1.38;;;;;;;;;;5023173;28;20130;-83
2023/03/26 13:16:40;;;;;;;2.38;1.10;;;;;;;;;;5009202;28;20050;-84
2023/03/26 13:19:12;;;;;;;4.93;1.42;;;;;;;;;;5022752;28;20026;-84
2023/03/26 13:21:55;;;;;;;2.22;1.10;;;;;;;;;;5010759;28;20041;-84
2023/03/26 13:25:02;;;;;;;2.67;1.00;;;;;;;;;;5007734;28;20529;-83
2023/03/26 13:27:56;;;;;;;2.25;1.10;;;;;;;;;;5007425;28;20054;-82
2023/03/26 13:30:37;;;;;;;3.55;1.10;;;;;;;;;;5007149;28;20106;-83
2023/03/26 13:33:21;;;;;;;3.80;1.20;;;;;;;;;;5009642;28;20494;-83
2023/03/26 13:36:29;;;;;;;2.35;0.93;;;;;;;;;;5006822;28;20034;-82
2023/03/26 13:39:10;;;;;;;258.92;104.07;;;;;;;;;;4996234;28;20057;-84
2023/03/26 13:41:44;;;;;;;497.85;254.63;;;;;;;;;;4995638;28;20126;-82
2023/03/26 13:44:16;;;;;;;7.65;3.60;;;;;;;;;;5007774;28;20776;-84
2023/03/26 13:46:50;;;;;;;4.88;1.27;;;;;;;;;;5005423;28;20030;-83
2023/03/26 13:49:40;;;;;;;3.13;1.17;;;;;;;;;;5017382;28;20042;-83
2023/03/26 13:52:24;;;;;;;3.13;1.27;;;;;;;;;;5018440;28;20042;-83
2023/03/26 13:55:16;;;;;;;1.75;1.00;;;;;;;;;;5005481;28;20118;-83
2023/03/26 13:57:48;;;;;;;2.28;1.13;;;;;;;;;;5003912;28;20443;-83
2023/03/26 14:00:20;;;;;;;0.85;0.57;;;;;;;;;;5007167;28;20045;-83
2023/03/26 14:02:56;;;;;;;1.30;0.88;;;;;;;;;;5022068;28;20046;-83
2023/03/26 14:05:44;;;;;;;0.95;0.40;;;;;;;;;;4990291;28;20122;-84
2023/03/26 14:08:18;;;;;;;0.47;0.47;;;;;;;;;;5009394;28;20117;-85
2023/03/26 14:10:53;;;;;;;4.40;0.70;;;;;;;;;;5003464;28;20095;-84
2023/03/26 14:13:53;;;;;;;0.40;0.40;;;;;;;;;;4998873;28;20069;-90
2023/03/26 14:16:59;;;;;;;1.27;0.80;;;;;;;;;;4988928;28;20046;-90
2023/03/26 14:20:05;;;;;;;1.40;0.70;;;;;;;;;;4995605;28;20046;-90
2023/03/26 14:23:26;;;;;;;2.78;1.50;;;;;;;;;;4994343;28;20041;-90
2023/03/26 14:26:32;;;;;;;4.15;1.85;;;;;;;;;;4990575;28;20038;-89
2023/03/26 14:29:22;;;;;;;7.18;2.22;;;;;;;;;;5011429;28;20034;-89
2023/03/26 14:32:16;;;;;;;5.30;2.50;;;;;;;;;;5010209;28;20037;-88
2023/03/26 14:35:20;;;;;;;2.78;1.40;;;;;;;;;;4996808;28;20046;-87
2023/03/26 14:38:09;;;;;;;4.05;2.08;;;;;;;;;;5016693;28;20569;-88
2023/03/26 14:41:18;;;;;;;6.28;3.13;;;;;;;;;;4998740;28;20499;-88
2023/03/26 14:44:30;;;;;;;1.70;1.10;;;;;;;;;;4988249;28;20046;-88
2023/03/26 14:50:45;;;;;;;0.90;0.70;;;;;;;;;;5002886;28;20034;-88
2023/03/26 14:53:30;;;;;;;;;;;;;;;;;;;;;
2023/03/26 14:59:46;;;;;;;2.30;0.63;;;;;;;;;;5009957;28;19914;-88
2023/03/26 15:02:54;;;;;;;2.80;1.40;;;;;;;;;;4986234;28;20054;-88
2023/03/26 15:05:45;;;;;;;1.27;0.60;;;;;;;;;;5024967;28;20042;-88
2023/03/26 15:08:57;;;;;;;2.40;1.33;;;;;;;;;;5013553;28;20034;-86
2023/03/26 15:12:06;;;;;;;1.15;0.60;;;;;;;;;;5026076;28;20057;-86
2023/03/26 15:14:49;;;;;;;2.47;1.40;;;;;;;;;;4999700;28;20037;-87
2023/03/26 15:17:30;;;;;;;2.05;1.00;;;;;;;;;;5001779;28;20054;-88
2023/03/26 15:20:17;;;;;;;6.78;2.47;;;;;;;;;;5002140;28;20034;-89
2023/03/26 15:23:20;;;;;;;8.25;2.70;;;;;;;;;;5003328;28;20052;-85
2023/03/26 15:26:06;;;;;;;2.67;1.60;;;;;;;;;;5007396;28;20041;-86
2023/03/26 15:29:12;;;;;;;1.50;0.80;;;;;;;;;;5021697;28;20058;-87
2023/03/26 15:31:56;;;;;;;4.10;1.63;;;;;;;;;;5006176;28;20056;-87
2023/03/26 15:34:53;;;;;;;2.17;1.02;;;;;;;;;;5020675;28;20043;-85
2023/03/26 15:37:42;;;;;;;2.10;1.00;;;;;;;;;;5006652;28;20061;-85
2023/03/26 15:40:26;;;;;;;3.83;2.00;;;;;;;;;;4996273;28;20430;-86
2023/03/26 15:43:04;;;;;;;3.30;1.70;;;;;;;;;;5003811;28;20060;-88
2023/03/26 15:45:56;;;;;;;4.68;2.13;;;;;;;;;;5007522;28;20045;-86
2023/03/26 15:49:10;;;;;;;2.58;1.50;;;;;;;;;;5007375;28;20098;-87
2023/03/26 15:51:51;;;;;;;2.22;1.38;;;;;;;;;;5003961;28;20065;-87
2023/03/26 15:54:53;;;;;;;3.30;1.35;;;;;;;;;;5005705;28;20042;-86
2023/03/26 15:57:29;;;;;;;2.13;1.10;;;;;;;;;;5019871;28;20054;-87
2023/03/26 16:00:21;;;;;;;3.35;1.92;;;;;;;;;;5002996;28;20039;-88
2023/03/26 16:03:12;;;;;;;4.13;1.58;;;;;;;;;;5006408;28;20034;-87
2023/03/26 16:06:02;;;;;;;3.95;2.00;;;;;;;;;;5004049;28;20106;-86
2023/03/26 16:08:45;;;;;;;2.60;1.65;;;;;;;;;;4998701;28;20038;-86
2023/03/26 16:11:12;;;;;;;2.88;1.70;;;;;;;;;;5001084;28;20031;-85
2023/03/26 16:13:53;;;;;;;1.50;1.00;;;;;;;;;;5002548;28;20042;-86